Portada
METAR-TAF:

METAR-TAF

Aeropuertos :

Aeropuerto de Huesca-Pirineos

Huesca, España

latitud: 42-04-32N, longitud: 0-18-58W, altitud: 539 m

Observación

El informe se hizo hace 32 minutos, a las 09:00 UTC
Viento 14 kt del oeste-noroeste, variando entre suroeste y noroeste
Temperatura 14°C
Humedad 55%
Presión 1015 hPa
Visibilidad 10 km o más
Escasas nubes a una altura de 5000 ft

METAR: LEHC 130900Z 29014KT 230V320 9999 FEW050 14/05 Q1015

Hora: 11:32 (09:32 UTC)

Pronóstico

El informe se hizo hace 1 hora y 32 minutos, a las 08:00 UTC
Pronóstico válido del 13 a las 09 UTC al 14 a las 09 UTC
Viento 12 kt del oeste-noroeste
Visibilidad 10 km o más
Escasas nubes a una altura de 5000 ft
Temporalmente
del 13 a las 14 UTC al 13 a las 24 UTC
Escasas nubes a una altura de 2500 ft, Cumulus congestus.
lluvia, chaparrones de lluvia

TAF: LEHC 130800Z 1309/1409 29012KT 9999 FEW050 TX20/1314Z TN07/1405Z TEMPO 1314/1324 RA SHRA FEW025TCU

Observaciones y pronósticos meteorológicos de más de 4000 aeropuertos (mensajes METAR y TAF).

Los puntos amarillos y rojos representan las estaciones disponibles.

Ponga el ratón en el punto deseado para ver el nombre de la estación.

Haga clic para ver las observaciones y los pronósticos meteorológicos.

Para cambiar el mapa : haga clic en los botones verdes con una cruz de color negro para hacer un zoom, en el botón verde con un guión para alejar o en las flechas verdes para mapas adyacentes.


METAR-TAF: